sensor_id;sensor_type;location;lat;lon;timestamp;temperature;humidity
25440;DHT22;13365;52.208;5.488;2023-02-14T00:02:10;8.50;90.20
25440;DHT22;13365;52.208;5.488;2023-02-14T00:04:35;8.50;90.20
25440;DHT22;13365;52.208;5.488;2023-02-14T00:07:08;8.50;90.20
25440;DHT22;13365;52.208;5.488;2023-02-14T00:09:33;8.50;90.10
25440;DHT22;13365;52.208;5.488;2023-02-14T00:11:59;8.50;90.10
25440;DHT22;13365;52.208;5.488;2023-02-14T00:14:24;8.40;90.00
25440;DHT22;13365;52.208;5.488;2023-02-14T00:17:08;8.40;90.00
25440;DHT22;13365;52.208;5.488;2023-02-14T00:19:34;8.30;90.00
25440;DHT22;13365;52.208;5.488;2023-02-14T00:22:00;8.30;90.00
25440;DHT22;13365;52.208;5.488;2023-02-14T00:24:26;8.30;90.00
25440;DHT22;13365;52.208;5.488;2023-02-14T00:26:52;8.20;90.00
25440;DHT22;13365;52.208;5.488;2023-02-14T00:29:21;8.20;90.00
25440;DHT22;13365;52.208;5.488;2023-02-14T00:31:48;8.20;89.90
25440;DHT22;13365;52.208;5.488;2023-02-14T00:34:15;8.20;90.00
25440;DHT22;13365;52.208;5.488;2023-02-14T00:36:41;8.20;90.10
25440;DHT22;13365;52.208;5.488;2023-02-14T00:39:09;8.10;90.20
25440;DHT22;13365;52.208;5.488;2023-02-14T00:41:36;8.10;90.20
25440;DHT22;13365;52.208;5.488;2023-02-14T00:44:01;8.10;90.20
25440;DHT22;13365;52.208;5.488;2023-02-14T00:46:27;8.00;90.30
25440;DHT22;13365;52.208;5.488;2023-02-14T00:48:54;7.90;90.50
25440;DHT22;13365;52.208;5.488;2023-02-14T00:51:20;8.00;90.60
25440;DHT22;13365;52.208;5.488;2023-02-14T00:53:47;8.00;90.50
25440;DHT22;13365;52.208;5.488;2023-02-14T00:56:13;8.10;90.50
25440;DHT22;13365;52.208;5.488;2023-02-14T00:58:39;8.00;90.40
25440;DHT22;13365;52.208;5.488;2023-02-14T01:01:05;8.00;90.40
25440;DHT22;13365;52.208;5.488;2023-02-14T01:03:31;8.00;90.30
25440;DHT22;13365;52.208;5.488;2023-02-14T01:05:57;8.00;90.30
25440;DHT22;13365;52.208;5.488;2023-02-14T01:08:22;8.00;90.30
25440;DHT22;13365;52.208;5.488;2023-02-14T01:10:48;8.00;90.30
25440;DHT22;13365;52.208;5.488;2023-02-14T01:13:14;7.90;90.30
25440;DHT22;13365;52.208;5.488;2023-02-14T01:15:42;7.90;90.30
25440;DHT22;13365;52.208;5.488;2023-02-14T01:18:08;8.00;90.30
25440;DHT22;13365;52.208;5.488;2023-02-14T01:20:34;7.90;90.20
25440;DHT22;13365;52.208;5.488;2023-02-14T01:23:00;7.90;90.30
25440;DHT22;13365;52.208;5.488;2023-02-14T01:25:26;7.90;90.30
25440;DHT22;13365;52.208;5.488;2023-02-14T01:27:51;7.90;90.30
25440;DHT22;13365;52.208;5.488;2023-02-14T01:30:17;7.80;90.20
25440;DHT22;13365;52.208;5.488;2023-02-14T01:32:43;7.80;90.20
25440;DHT22;13365;52.208;5.488;2023-02-14T01:35:09;7.80;90.20
25440;DHT22;13365;52.208;5.488;2023-02-14T01:37:35;7.80;90.20
25440;DHT22;13365;52.208;5.488;2023-02-14T01:40:01;7.70;90.10
25440;DHT22;13365;52.208;5.488;2023-02-14T01:42:27;7.70;90.00
25440;DHT22;13365;52.208;5.488;2023-02-14T01:45:06;7.50;89.80
25440;DHT22;13365;52.208;5.488;2023-02-14T01:47:36;7.60;90.00
25440;DHT22;13365;52.208;5.488;2023-02-14T01:50:08;7.60;90.00
25440;DHT22;13365;52.208;5.488;2023-02-14T01:52:38;7.40;89.80
25440;DHT22;13365;52.208;5.488;2023-02-14T01:55:11;7.50;90.00
25440;DHT22;13365;52.208;5.488;2023-02-14T01:57:43;7.50;89.80
25440;DHT22;13365;52.208;5.488;2023-02-14T02:00:10;7.40;90.00
25440;DHT22;13365;52.208;5.488;2023-02-14T02:02:56;7.40;90.10
25440;DHT22;13365;52.208;5.488;2023-02-14T02:05:23;7.40;90.20
25440;DHT22;13365;52.208;5.488;2023-02-14T02:07:51;7.30;90.20
25440;DHT22;13365;52.208;5.488;2023-02-14T02:10:18;7.40;90.40
25440;DHT22;13365;52.208;5.488;2023-02-14T02:12:43;7.40;90.30
25440;DHT22;13365;52.208;5.488;2023-02-14T02:15:09;7.40;90.50
25440;DHT22;13365;52.208;5.488;2023-02-14T02:18:01;7.40;90.40
25440;DHT22;13365;52.208;5.488;2023-02-14T02:20:50;7.40;90.50
25440;DHT22;13365;52.208;5.488;2023-02-14T02:23:56;7.50;90.50
25440;DHT22;13365;52.208;5.488;2023-02-14T02:32:30;7.40;90.60
25440;DHT22;13365;52.208;5.488;2023-02-14T02:48:47;7.40;90.40
25440;DHT22;13365;52.208;5.488;2023-02-14T02:51:35;7.20;90.10
25440;DHT22;13365;52.208;5.488;2023-02-14T02:54:34;7.00;90.30
25440;DHT22;13365;52.208;5.488;2023-02-14T02:57:04;7.20;90.50
25440;DHT22;13365;52.208;5.488;2023-02-14T02:59:35;7.30;90.40
25440;DHT22;13365;52.208;5.488;2023-02-14T03:02:12;7.20;90.30
25440;DHT22;13365;52.208;5.488;2023-02-14T03:04:54;7.10;90.40
25440;DHT22;13365;52.208;5.488;2023-02-14T03:07:33;7.10;90.50
25440;DHT22;13365;52.208;5.488;2023-02-14T03:10:20;7.10;90.50
25440;DHT22;13365;52.208;5.488;2023-02-14T03:24:38;7.10;90.50
25440;DHT22;13365;52.208;5.488;2023-02-14T03:27:26;7.10;90.60
25440;DHT22;13365;52.208;5.488;2023-02-14T03:30:06;7.10;90.70
25440;DHT22;13365;52.208;5.488;2023-02-14T03:32:40;7.00;90.60
25440;DHT22;13365;52.208;5.488;2023-02-14T03:35:33;7.00;90.70
25440;DHT22;13365;52.208;5.488;2023-02-14T03:38:07;7.00;90.70
25440;DHT22;13365;52.208;5.488;2023-02-14T03:40:41;7.00;90.80
25440;DHT22;13365;52.208;5.488;2023-02-14T03:43:10;7.10;90.80
25440;DHT22;13365;52.208;5.488;2023-02-14T03:45:41;7.10;90.80
25440;DHT22;13365;52.208;5.488;2023-02-14T03:48:11;7.20;90.80
25440;DHT22;13365;52.208;5.488;2023-02-14T03:50:38;7.20;90.80
25440;DHT22;13365;52.208;5.488;2023-02-14T03:53:08;7.10;90.70
25440;DHT22;13365;52.208;5.488;2023-02-14T03:55:43;7.10;90.70
25440;DHT22;13365;52.208;5.488;2023-02-14T03:58:25;7.10;90.60
25440;DHT22;13365;52.208;5.488;2023-02-14T04:00:56;7.10;90.50
25440;DHT22;13365;52.208;5.488;2023-02-14T04:03:24;7.20;90.40
25440;DHT22;13365;52.208;5.488;2023-02-14T04:05:51;7.00;90.20
25440;DHT22;13365;52.208;5.488;2023-02-14T04:08:22;6.90;90.30
25440;DHT22;13365;52.208;5.488;2023-02-14T04:10:49;6.80;90.30
25440;DHT22;13365;52.208;5.488;2023-02-14T04:13:15;6.90;90.30
25440;DHT22;13365;52.208;5.488;2023-02-14T04:15:41;6.90;90.30
25440;DHT22;13365;52.208;5.488;2023-02-14T04:18:07;6.80;90.20
25440;DHT22;13365;52.208;5.488;2023-02-14T04:20:51;6.80;90.30
25440;DHT22;13365;52.208;5.488;2023-02-14T04:23:17;6.80;90.40
25440;DHT22;13365;52.208;5.488;2023-02-14T04:25:42;6.80;90.50
25440;DHT22;13365;52.208;5.488;2023-02-14T04:28:10;6.80;90.50
25440;DHT22;13365;52.208;5.488;2023-02-14T04:30:35;6.70;90.60
25440;DHT22;13365;52.208;5.488;2023-02-14T04:33:02;6.70;90.70
25440;DHT22;13365;52.208;5.488;2023-02-14T04:35:28;6.70;90.70
25440;DHT22;13365;52.208;5.488;2023-02-14T04:37:53;6.70;90.80
25440;DHT22;13365;52.208;5.488;2023-02-14T04:40:19;6.70;90.80
25440;DHT22;13365;52.208;5.488;2023-02-14T04:42:45;6.60;90.60
25440;DHT22;13365;52.208;5.488;2023-02-14T04:45:10;6.60;90.70
25440;DHT22;13365;52.208;5.488;2023-02-14T04:47:36;6.60;90.70
25440;DHT22;13365;52.208;5.488;2023-02-14T04:50:02;6.50;90.50
25440;DHT22;13365;52.208;5.488;2023-02-14T04:52:28;6.50;90.60
25440;DHT22;13365;52.208;5.488;2023-02-14T04:54:53;6.60;90.70
25440;DHT22;13365;52.208;5.488;2023-02-14T04:57:19;6.50;90.50
25440;DHT22;13365;52.208;5.488;2023-02-14T04:59:44;6.60;90.50
25440;DHT22;13365;52.208;5.488;2023-02-14T05:02:10;6.50;90.50
25440;DHT22;13365;52.208;5.488;2023-02-14T05:04:36;6.50;90.60
25440;DHT22;13365;52.208;5.488;2023-02-14T05:07:01;6.50;90.70
25440;DHT22;13365;52.208;5.488;2023-02-14T05:09:27;6.50;90.80
25440;DHT22;13365;52.208;5.488;2023-02-14T05:11:53;6.40;90.80
25440;DHT22;13365;52.208;5.488;2023-02-14T05:14:19;6.40;90.70
25440;DHT22;13365;52.208;5.488;2023-02-14T05:16:44;6.40;90.70
25440;DHT22;13365;52.208;5.488;2023-02-14T05:19:10;6.40;90.70
25440;DHT22;13365;52.208;5.488;2023-02-14T05:21:35;6.40;90.60
25440;DHT22;13365;52.208;5.488;2023-02-14T05:24:02;6.50;90.60
25440;DHT22;13365;52.208;5.488;2023-02-14T05:26:28;6.50;90.60
25440;DHT22;13365;52.208;5.488;2023-02-14T05:28:54;6.50;90.60
25440;DHT22;13365;52.208;5.488;2023-02-14T05:31:19;6.50;90.60
25440;DHT22;13365;52.208;5.488;2023-02-14T05:33:45;6.40;90.50
25440;DHT22;13365;52.208;5.488;2023-02-14T05:36:10;6.50;90.60
25440;DHT22;13365;52.208;5.488;2023-02-14T05:38:36;6.50;90.50
25440;DHT22;13365;52.208;5.488;2023-02-14T05:41:01;6.50;90.50
25440;DHT22;13365;52.208;5.488;2023-02-14T05:43:27;6.40;90.50
25440;DHT22;13365;52.208;5.488;2023-02-14T05:45:52;6.30;90.40
25440;DHT22;13365;52.208;5.488;2023-02-14T05:48:18;6.40;90.50
25440;DHT22;13365;52.208;5.488;2023-02-14T05:50:44;6.40;90.50
25440;DHT22;13365;52.208;5.488;2023-02-14T05:53:10;6.60;90.50
25440;DHT22;13365;52.208;5.488;2023-02-14T05:55:36;6.50;90.50
25440;DHT22;13365;52.208;5.488;2023-02-14T05:58:02;6.50;90.50
25440;DHT22;13365;52.208;5.488;2023-02-14T06:00:27;6.60;90.60
25440;DHT22;13365;52.208;5.488;2023-02-14T06:02:53;6.50;90.50
25440;DHT22;13365;52.208;5.488;2023-02-14T06:05:19;6.40;90.50
25440;DHT22;13365;52.208;5.488;2023-02-14T06:07:48;6.50;90.70
25440;DHT22;13365;52.208;5.488;2023-02-14T06:10:18;6.50;90.70
25440;DHT22;13365;52.208;5.488;2023-02-14T06:12:44;6.50;90.70
25440;DHT22;13365;52.208;5.488;2023-02-14T06:15:10;6.60;90.70
25440;DHT22;13365;52.208;5.488;2023-02-14T06:17:35;6.50;90.60
25440;DHT22;13365;52.208;5.488;2023-02-14T06:20:01;6.50;90.70
25440;DHT22;13365;52.208;5.488;2023-02-14T06:22:27;6.60;90.90
25440;DHT22;13365;52.208;5.488;2023-02-14T06:24:52;6.60;91.10
25440;DHT22;13365;52.208;5.488;2023-02-14T06:27:18;6.60;91.30
25440;DHT22;13365;52.208;5.488;2023-02-14T06:29:43;6.70;91.70
25440;DHT22;13365;52.208;5.488;2023-02-14T06:32:09;6.70;91.60
25440;DHT22;13365;52.208;5.488;2023-02-14T06:34:34;6.70;91.80
25440;DHT22;13365;52.208;5.488;2023-02-14T06:37:00;6.80;91.90
25440;DHT22;13365;52.208;5.488;2023-02-14T06:39:26;6.90;92.10
25440;DHT22;13365;52.208;5.488;2023-02-14T06:41:51;7.00;92.10
25440;DHT22;13365;52.208;5.488;2023-02-14T06:44:17;7.00;92.00
25440;DHT22;13365;52.208;5.488;2023-02-14T06:46:42;7.10;92.10
25440;DHT22;13365;52.208;5.488;2023-02-14T06:49:09;7.20;91.90
25440;DHT22;13365;52.208;5.488;2023-02-14T06:51:34;7.30;91.90
25440;DHT22;13365;52.208;5.488;2023-02-14T06:54:00;7.20;91.60
25440;DHT22;13365;52.208;5.488;2023-02-14T06:56:26;7.20;91.60
25440;DHT22;13365;52.208;5.488;2023-02-14T06:58:52;7.20;91.60
25440;DHT22;13365;52.208;5.488;2023-02-14T07:01:18;7.20;91.50
25440;DHT22;13365;52.208;5.488;2023-02-14T07:03:43;7.30;91.60
25440;DHT22;13365;52.208;5.488;2023-02-14T07:06:09;7.30;91.50
25440;DHT22;13365;52.208;5.488;2023-02-14T07:08:34;7.20;91.30
25440;DHT22;13365;52.208;5.488;2023-02-14T07:11:00;7.20;91.40
25440;DHT22;13365;52.208;5.488;2023-02-14T07:13:25;7.20;91.50
25440;DHT22;13365;52.208;5.488;2023-02-14T07:15:51;7.20;91.40
25440;DHT22;13365;52.208;5.488;2023-02-14T07:18:17;7.20;91.40
25440;DHT22;13365;52.208;5.488;2023-02-14T07:20:42;7.20;91.40
25440;DHT22;13365;52.208;5.488;2023-02-14T07:23:09;7.20;91.50
25440;DHT22;13365;52.208;5.488;2023-02-14T07:25:35;7.20;91.50
25440;DHT22;13365;52.208;5.488;2023-02-14T07:28:00;7.30;91.60
25440;DHT22;13365;52.208;5.488;2023-02-14T07:30:27;7.30;91.60
25440;DHT22;13365;52.208;5.488;2023-02-14T07:32:52;7.40;92.20
25440;DHT22;13365;52.208;5.488;2023-02-14T07:35:18;7.40;91.90
25440;DHT22;13365;52.208;5.488;2023-02-14T07:37:43;7.40;92.00
25440;DHT22;13365;52.208;5.488;2023-02-14T07:40:09;7.50;92.10
25440;DHT22;13365;52.208;5.488;2023-02-14T07:42:35;7.60;92.30
25440;DHT22;13365;52.208;5.488;2023-02-14T07:45:01;7.60;92.60
25440;DHT22;13365;52.208;5.488;2023-02-14T07:47:27;7.60;92.40
25440;DHT22;13365;52.208;5.488;2023-02-14T07:49:52;7.70;92.50
25440;DHT22;13365;52.208;5.488;2023-02-14T07:52:18;7.80;92.70
25440;DHT22;13365;52.208;5.488;2023-02-14T07:54:44;7.90;92.80
25440;DHT22;13365;52.208;5.488;2023-02-14T07:57:09;8.00;93.00
25440;DHT22;13365;52.208;5.488;2023-02-14T07:59:35;8.10;93.00
25440;DHT22;13365;52.208;5.488;2023-02-14T08:02:01;8.10;93.00
25440;DHT22;13365;52.208;5.488;2023-02-14T08:04:26;8.20;93.20
25440;DHT22;13365;52.208;5.488;2023-02-14T08:06:53;8.30;93.30
25440;DHT22;13365;52.208;5.488;2023-02-14T08:09:19;8.40;93.30
25440;DHT22;13365;52.208;5.488;2023-02-14T08:11:55;8.50;93.30
25440;DHT22;13365;52.208;5.488;2023-02-14T08:14:40;8.60;93.40
25440;DHT22;13365;52.208;5.488;2023-02-14T08:17:06;8.70;93.50
25440;DHT22;13365;52.208;5.488;2023-02-14T08:19:34;8.80;93.70
25440;DHT22;13365;52.208;5.488;2023-02-14T08:22:00;8.90;93.80
25440;DHT22;13365;52.208;5.488;2023-02-14T08:24:26;9.00;93.70
25440;DHT22;13365;52.208;5.488;2023-02-14T08:26:51;9.10;93.80
25440;DHT22;13365;52.208;5.488;2023-02-14T08:29:17;9.20;93.90
25440;DHT22;13365;52.208;5.488;2023-02-14T08:31:43;9.30;94.00
25440;DHT22;13365;52.208;5.488;2023-02-14T08:34:09;9.30;94.10
25440;DHT22;13365;52.208;5.488;2023-02-14T08:36:35;9.20;94.10
25440;DHT22;13365;52.208;5.488;2023-02-14T08:39:02;9.30;94.50
25440;DHT22;13365;52.208;5.488;2023-02-14T08:41:27;9.50;94.70
25440;DHT22;13365;52.208;5.488;2023-02-14T08:43:53;9.60;94.80
25440;DHT22;13365;52.208;5.488;2023-02-14T08:46:18;9.70;94.80
25440;DHT22;13365;52.208;5.488;2023-02-14T08:48:44;9.80;95.10
25440;DHT22;13365;52.208;5.488;2023-02-14T08:51:11;9.90;94.90
25440;DHT22;13365;52.208;5.488;2023-02-14T08:53:38;10.00;94.90
25440;DHT22;13365;52.208;5.488;2023-02-14T08:56:06;10.00;95.00
25440;DHT22;13365;52.208;5.488;2023-02-14T08:58:32;10.10;95.20
25440;DHT22;13365;52.208;5.488;2023-02-14T09:01:00;10.20;95.40
25440;DHT22;13365;52.208;5.488;2023-02-14T09:03:26;10.30;95.40
25440;DHT22;13365;52.208;5.488;2023-02-14T09:05:51;10.40;95.60
25440;DHT22;13365;52.208;5.488;2023-02-14T09:08:17;10.40;95.70
25440;DHT22;13365;52.208;5.488;2023-02-14T09:10:42;10.40;95.80
25440;DHT22;13365;52.208;5.488;2023-02-14T09:13:08;10.50;96.00
25440;DHT22;13365;52.208;5.488;2023-02-14T09:15:33;10.60;96.10
25440;DHT22;13365;52.208;5.488;2023-02-14T09:17:59;10.70;96.20
25440;DHT22;13365;52.208;5.488;2023-02-14T09:20:25;10.80;96.40
25440;DHT22;13365;52.208;5.488;2023-02-14T09:22:50;10.90;96.40
25440;DHT22;13365;52.208;5.488;2023-02-14T09:25:19;11.00;96.60
25440;DHT22;13365;52.208;5.488;2023-02-14T09:27:45;11.10;96.60
25440;DHT22;13365;52.208;5.488;2023-02-14T09:30:11;11.30;96.60
25440;DHT22;13365;52.208;5.488;2023-02-14T09:32:37;11.50;96.50
25440;DHT22;13365;52.208;5.488;2023-02-14T09:35:03;11.60;96.50
25440;DHT22;13365;52.208;5.488;2023-02-14T09:37:47;11.50;96.70
25440;DHT22;13365;52.208;5.488;2023-02-14T09:40:14;11.70;96.70
25440;DHT22;13365;52.208;5.488;2023-02-14T09:43:01;11.70;97.00
25440;DHT22;13365;52.208;5.488;2023-02-14T09:45:29;11.90;97.20
25440;DHT22;13365;52.208;5.488;2023-02-14T09:48:08;12.00;97.10
25440;DHT22;13365;52.208;5.488;2023-02-14T09:58:54;12.50;96.90
25440;DHT22;13365;52.208;5.488;2023-02-14T10:01:32;12.70;96.80
25440;DHT22;13365;52.208;5.488;2023-02-14T10:09:55;13.30;96.50
25440;DHT22;13365;52.208;5.488;2023-02-14T10:12:27;13.50;95.90
25440;DHT22;13365;52.208;5.488;2023-02-14T10:14:55;13.50;95.50
25440;DHT22;13365;52.208;5.488;2023-02-14T10:20:40;13.80;95.60
25440;DHT22;13365;52.208;5.488;2023-02-14T10:23:28;14.00;95.00
25440;DHT22;13365;52.208;5.488;2023-02-14T10:26:20;14.10;94.90
25440;DHT22;13365;52.208;5.488;2023-02-14T10:28:49;14.10;94.60
25440;DHT22;13365;52.208;5.488;2023-02-14T10:31:19;14.30;94.20
25440;DHT22;13365;52.208;5.488;2023-02-14T10:33:59;14.30;94.80
25440;DHT22;13365;52.208;5.488;2023-02-14T10:44:58;15.10;92.60
25440;DHT22;13365;52.208;5.488;2023-02-14T10:47:49;15.10;92.50
25440;DHT22;13365;52.208;5.488;2023-02-14T10:50:35;15.20;92.60
25440;DHT22;13365;52.208;5.488;2023-02-14T10:56:20;15.10;92.70
25440;DHT22;13365;52.208;5.488;2023-02-14T10:58:49;15.30;92.30
25440;DHT22;13365;52.208;5.488;2023-02-14T11:01:17;15.30;92.40
25440;DHT22;13365;52.208;5.488;2023-02-14T11:04:02;15.50;92.20
25440;DHT22;13365;52.208;5.488;2023-02-14T11:06:31;15.70;92.70
25440;DHT22;13365;52.208;5.488;2023-02-14T11:08:57;16.00;91.50
25440;DHT22;13365;52.208;5.488;2023-02-14T11:14:25;16.10;90.40
25440;DHT22;13365;52.208;5.488;2023-02-14T11:16:53;16.20;91.00
25440;DHT22;13365;52.208;5.488;2023-02-14T11:19:29;16.20;90.50
25440;DHT22;13365;52.208;5.488;2023-02-14T11:21:57;16.20;90.40
25440;DHT22;13365;52.208;5.488;2023-02-14T11:24:34;16.30;89.90
25440;DHT22;13365;52.208;5.488;2023-02-14T11:29:41;16.10;90.10
25440;DHT22;13365;52.208;5.488;2023-02-14T11:32:19;16.20;90.30
25440;DHT22;13365;52.208;5.488;2023-02-14T11:34:53;16.30;89.50
25440;DHT22;13365;52.208;5.488;2023-02-14T11:39:51;16.40;88.90
25440;DHT22;13365;52.208;5.488;2023-02-14T11:42:42;16.40;89.70
25440;DHT22;13365;52.208;5.488;2023-02-14T11:45:37;16.70;89.10
25440;DHT22;13365;52.208;5.488;2023-02-14T11:50:35;16.70;88.20
25440;DHT22;13365;52.208;5.488;2023-02-14T11:53:02;16.80;87.90
25440;DHT22;13365;52.208;5.488;2023-02-14T11:55:34;16.80;88.10
25440;DHT22;13365;52.208;5.488;2023-02-14T11:58:02;16.90;86.90
25440;DHT22;13365;52.208;5.488;2023-02-14T12:00:28;16.90;85.50
25440;DHT22;13365;52.208;5.488;2023-02-14T12:02:57;17.10;85.20
25440;DHT22;13365;52.208;5.488;2023-02-14T12:05:30;16.90;85.10
25440;DHT22;13365;52.208;5.488;2023-02-14T12:07:58;17.00;84.10
25440;DHT22;13365;52.208;5.488;2023-02-14T12:12:59;17.20;83.10
25440;DHT22;13365;52.208;5.488;2023-02-14T12:15:32;17.10;83.40
25440;DHT22;13365;52.208;5.488;2023-02-14T12:23:34;17.40;84.00
25440;DHT22;13365;52.208;5.488;2023-02-14T12:28:44;17.40;83.40
25440;DHT22;13365;52.208;5.488;2023-02-14T12:31:14;17.50;83.80
25440;DHT22;13365;52.208;5.488;2023-02-14T12:33:40;17.50;84.20
25440;DHT22;13365;52.208;5.488;2023-02-14T12:36:32;17.70;82.30
25440;DHT22;13365;52.208;5.488;2023-02-14T12:41:48;17.70;82.40
25440;DHT22;13365;52.208;5.488;2023-02-14T12:44:29;17.80;81.10
25440;DHT22;13365;52.208;5.488;2023-02-14T12:47:17;17.80;81.80
25440;DHT22;13365;52.208;5.488;2023-02-14T12:49:58;17.80;82.30
25440;DHT22;13365;52.208;5.488;2023-02-14T12:52:50;17.80;82.80
25440;DHT22;13365;52.208;5.488;2023-02-14T12:58:58;18.00;81.00
25440;DHT22;13365;52.208;5.488;2023-02-14T13:06:30;18.00;80.70
25440;DHT22;13365;52.208;5.488;2023-02-14T13:09:14;18.10;79.70
25440;DHT22;13365;52.208;5.488;2023-02-14T13:11:50;18.00;79.60
25440;DHT22;13365;52.208;5.488;2023-02-14T13:20:11;18.20;80.10
25440;DHT22;13365;52.208;5.488;2023-02-14T13:22:40;18.20;80.40
25440;DHT22;13365;52.208;5.488;2023-02-14T13:25:20;18.40;79.10
25440;DHT22;13365;52.208;5.488;2023-02-14T13:27:48;18.60;79.40
25440;DHT22;13365;52.208;5.488;2023-02-14T13:30:23;18.70;78.10
25440;DHT22;13365;52.208;5.488;2023-02-14T13:32:52;18.60;79.20
25440;DHT22;13365;52.208;5.488;2023-02-14T13:35:20;18.70;79.40
25440;DHT22;13365;52.208;5.488;2023-02-14T13:37:56;18.70;79.30
25440;DHT22;13365;52.208;5.488;2023-02-14T13:40:25;18.70;80.30
25440;DHT22;13365;52.208;5.488;2023-02-14T13:42:59;18.90;78.40
25440;DHT22;13365;52.208;5.488;2023-02-14T13:48:19;19.00;78.50
25440;DHT22;13365;52.208;5.488;2023-02-14T13:51:00;19.00;77.40
25440;DHT22;13365;52.208;5.488;2023-02-14T13:55:59;19.00;77.30
25440;DHT22;13365;52.208;5.488;2023-02-14T13:58:25;19.00;77.60
25440;DHT22;13365;52.208;5.488;2023-02-14T14:00:52;19.10;77.60
25440;DHT22;13365;52.208;5.488;2023-02-14T14:06:12;19.00;76.20
25440;DHT22;13365;52.208;5.488;2023-02-14T14:21:40;18.60;77.30
25440;DHT22;13365;52.208;5.488;2023-02-14T14:26:50;18.50;77.60
25440;DHT22;13365;52.208;5.488;2023-02-14T14:29:28;18.60;77.40
25440;DHT22;13365;52.208;5.488;2023-02-14T14:31:54;18.50;77.80
25440;DHT22;13365;52.208;5.488;2023-02-14T14:34:22;18.40;77.60
25440;DHT22;13365;52.208;5.488;2023-02-14T14:36:50;18.30;77.50
25440;DHT22;13365;52.208;5.488;2023-02-14T14:39:29;18.60;76.50
25440;DHT22;13365;52.208;5.488;2023-02-14T14:42:03;18.40;76.30
25440;DHT22;13365;52.208;5.488;2023-02-14T14:44:31;18.40;76.60
25440;DHT22;13365;52.208;5.488;2023-02-14T14:46:58;18.30;76.60
25440;DHT22;13365;52.208;5.488;2023-02-14T14:49:24;18.40;77.00
25440;DHT22;13365;52.208;5.488;2023-02-14T14:51:50;18.30;76.40
25440;DHT22;13365;52.208;5.488;2023-02-14T14:54:19;18.20;77.10
25440;DHT22;13365;52.208;5.488;2023-02-14T14:56:52;18.20;76.90
25440;DHT22;13365;52.208;5.488;2023-02-14T15:01:47;18.10;77.40
25440;DHT22;13365;52.208;5.488;2023-02-14T15:04:29;18.00;77.50
25440;DHT22;13365;52.208;5.488;2023-02-14T15:06:58;18.10;77.70
25440;DHT22;13365;52.208;5.488;2023-02-14T15:09:41;18.10;77.20
25440;DHT22;13365;52.208;5.488;2023-02-14T15:12:08;18.20;76.80
25440;DHT22;13365;52.208;5.488;2023-02-14T15:14:54;18.40;77.10
25440;DHT22;13365;52.208;5.488;2023-02-14T15:17:24;18.60;77.30
25440;DHT22;13365;52.208;5.488;2023-02-14T15:19:54;18.80;77.40
25440;DHT22;13365;52.208;5.488;2023-02-14T15:22:25;19.10;76.80
25440;DHT22;13365;52.208;5.488;2023-02-14T15:24:53;19.50;76.10
25440;DHT22;13365;52.208;5.488;2023-02-14T15:27:21;19.90;74.70
25440;DHT22;13365;52.208;5.488;2023-02-14T15:30:06;20.00;74.40
25440;DHT22;13365;52.208;5.488;2023-02-14T15:32:35;20.30;74.30
25440;DHT22;13365;52.208;5.488;2023-02-14T15:35:04;20.50;74.20
25440;DHT22;13365;52.208;5.488;2023-02-14T15:37:30;20.70;73.50
25440;DHT22;13365;52.208;5.488;2023-02-14T15:39:56;20.90;72.40
25440;DHT22;13365;52.208;5.488;2023-02-14T15:42:28;21.00;70.60
25440;DHT22;13365;52.208;5.488;2023-02-14T15:45:18;20.90;70.00
25440;DHT22;13365;52.208;5.488;2023-02-14T15:47:50;20.70;70.30
25440;DHT22;13365;52.208;5.488;2023-02-14T15:50:19;20.40;70.60
25440;DHT22;13365;52.208;5.488;2023-02-14T15:52:45;20.20;71.10
25440;DHT22;13365;52.208;5.488;2023-02-14T15:55:14;19.80;71.60
25440;DHT22;13365;52.208;5.488;2023-02-14T15:57:43;19.60;72.10
25440;DHT22;13365;52.208;5.488;2023-02-14T16:00:17;19.30;73.40
25440;DHT22;13365;52.208;5.488;2023-02-14T16:02:44;19.00;73.60
25440;DHT22;13365;52.208;5.488;2023-02-14T16:05:19;18.80;74.00
25440;DHT22;13365;52.208;5.488;2023-02-14T16:08:06;18.70;74.50
25440;DHT22;13365;52.208;5.488;2023-02-14T16:10:34;18.50;75.00
25440;DHT22;13365;52.208;5.488;2023-02-14T16:13:18;18.40;75.30
25440;DHT22;13365;52.208;5.488;2023-02-14T16:16:02;18.20;75.70
25440;DHT22;13365;52.208;5.488;2023-02-14T16:18:48;18.00;76.00
25440;DHT22;13365;52.208;5.488;2023-02-14T16:21:22;17.90;76.40
25440;DHT22;13365;52.208;5.488;2023-02-14T16:26:30;17.60;76.90
25440;DHT22;13365;52.208;5.488;2023-02-14T16:28:55;17.50;77.20
25440;DHT22;13365;52.208;5.488;2023-02-14T16:31:21;17.40;77.70
25440;DHT22;13365;52.208;5.488;2023-02-14T16:33:47;17.20;77.90
25440;DHT22;13365;52.208;5.488;2023-02-14T16:36:20;17.10;78.00
25440;DHT22;13365;52.208;5.488;2023-02-14T16:38:47;17.00;78.10
25440;DHT22;13365;52.208;5.488;2023-02-14T16:41:15;16.90;78.40
25440;DHT22;13365;52.208;5.488;2023-02-14T16:43:42;16.80;78.70
25440;DHT22;13365;52.208;5.488;2023-02-14T16:46:13;16.60;78.90
25440;DHT22;13365;52.208;5.488;2023-02-14T16:48:42;16.50;79.00
25440;DHT22;13365;52.208;5.488;2023-02-14T16:51:12;16.30;79.10
25440;DHT22;13365;52.208;5.488;2023-02-14T16:53:39;16.20;79.30
25440;DHT22;13365;52.208;5.488;2023-02-14T16:56:06;16.10;79.40
25440;DHT22;13365;52.208;5.488;2023-02-14T16:58:34;16.00;79.20
25440;DHT22;13365;52.208;5.488;2023-02-14T17:01:00;15.90;79.20
25440;DHT22;13365;52.208;5.488;2023-02-14T17:03:26;15.80;79.30
25440;DHT22;13365;52.208;5.488;2023-02-14T17:05:54;15.60;79.20
25440;DHT22;13365;52.208;5.488;2023-02-14T17:08:21;15.40;80.40
25440;DHT22;13365;52.208;5.488;2023-02-14T17:10:47;15.30;80.30
25440;DHT22;13365;52.208;5.488;2023-02-14T17:13:16;15.20;80.60
25440;DHT22;13365;52.208;5.488;2023-02-14T17:15:42;15.10;80.90
25440;DHT22;13365;52.208;5.488;2023-02-14T17:18:10;15.00;81.00
25440;DHT22;13365;52.208;5.488;2023-02-14T17:20:38;14.90;81.40
25440;DHT22;13365;52.208;5.488;2023-02-14T17:23:04;14.70;81.70
25440;DHT22;13365;52.208;5.488;2023-02-14T17:25:29;14.40;82.70
25440;DHT22;13365;52.208;5.488;2023-02-14T17:27:55;14.40;83.40
25440;DHT22;13365;52.208;5.488;2023-02-14T17:30:21;14.40;83.00
25440;DHT22;13365;52.208;5.488;2023-02-14T17:32:47;14.30;82.50
25440;DHT22;13365;52.208;5.488;2023-02-14T17:35:14;14.10;82.30
25440;DHT22;13365;52.208;5.488;2023-02-14T17:37:40;14.10;82.60
25440;DHT22;13365;52.208;5.488;2023-02-14T17:40:06;14.00;82.50
25440;DHT22;13365;52.208;5.488;2023-02-14T17:42:33;13.90;82.70
25440;DHT22;13365;52.208;5.488;2023-02-14T17:44:59;13.90;83.00
25440;DHT22;13365;52.208;5.488;2023-02-14T17:47:25;13.80;83.20
25440;DHT22;13365;52.208;5.488;2023-02-14T17:49:50;13.70;83.40
25440;DHT22;13365;52.208;5.488;2023-02-14T17:52:16;13.50;83.60
25440;DHT22;13365;52.208;5.488;2023-02-14T17:54:42;13.40;84.10
25440;DHT22;13365;52.208;5.488;2023-02-14T17:57:08;13.30;84.40
25440;DHT22;13365;52.208;5.488;2023-02-14T17:59:33;13.30;84.20
25440;DHT22;13365;52.208;5.488;2023-02-14T18:01:59;13.30;84.20
25440;DHT22;13365;52.208;5.488;2023-02-14T18:04:26;13.20;84.80